Time;durP1;ratioP1;P1;durP2;ratioP2;P2;SDS_P1;SDS_P2;PMS_P1;PMS_P2;Temp;Humidity;BMP_temperature;BMP_pressure;BME280_temperature;BME280_humidity;BME280_pressure;Samples;Min_cycle;Max_cycle;Signal;HPM_P1;HPM_P2
2023/01/24 00:00:47;;;;;;;42.47;18.75;;;1.50;99.90;;;;;;15199061;23;20046;-36
2023/01/24 00:06:49;;;;;;;42.70;18.98;;;1.50;99.90;;;;;;15201818;23;20108;-36
2023/01/24 00:12:51;;;;;;;43.15;19.30;;;1.50;99.90;;;;;;15199740;23;20025;-36
2023/01/24 00:18:52;;;;;;;44.55;18.40;;;1.50;99.90;;;;;;15202026;23;20022;-36
2023/01/24 00:24:54;;;;;;;40.00;19.25;;;1.50;99.90;;;;;;15196168;23;20092;-44
2023/01/24 00:30:56;;;;;;;41.70;18.80;;;1.50;99.90;;;;;;15195468;23;20065;-37
2023/01/24 00:36:58;;;;;;;46.67;18.58;;;1.50;99.90;;;;;;15189097;23;20017;-37
2023/01/24 00:43:00;;;;;;;43.08;18.95;;;1.50;99.90;;;;;;15193231;23;20347;-37
2023/01/24 00:49:02;;;;;;;43.53;18.83;;;1.40;99.90;;;;;;15194480;23;20026;-37
2023/01/24 00:55:05;;;;;;;42.83;18.10;;;1.40;99.90;;;;;;15191528;23;20030;-36
2023/01/24 01:01:07;;;;;;;41.60;18.00;;;1.50;99.90;;;;;;15202353;23;20057;-36
2023/01/24 01:07:08;;;;;;;38.53;17.38;;;1.50;99.90;;;;;;15202728;23;20575;-35
2023/01/24 01:13:12;;;;;;;38.35;17.73;;;1.50;99.90;;;;;;15177332;23;20028;-36
2023/01/24 01:19:14;;;;;;;35.73;16.63;;;1.40;99.90;;;;;;15206793;23;20644;-36
2023/01/24 01:25:16;;;;;;;32.38;15.73;;;1.40;99.90;;;;;;15202583;23;20076;-36
2023/01/24 01:31:19;;;;;;;34.45;15.75;;;1.50;99.90;;;;;;15199331;23;20463;-36
2023/01/24 01:37:21;;;;;;;29.40;14.77;;;1.40;99.90;;;;;;15200291;23;20044;-36
2023/01/24 01:43:27;;;;;;;34.17;15.18;;;1.40;99.90;;;;;;15200945;23;20485;-36
2023/01/24 01:49:29;;;;;;;29.02;13.65;;;1.40;99.90;;;;;;15178238;23;20065;-36
2023/01/24 01:55:35;;;;;;;28.02;14.30;;;1.40;99.90;;;;;;15205184;23;20029;-36
2023/01/24 02:01:37;;;;;;;28.45;13.77;;;1.40;99.90;;;;;;15202283;23;20112;-37
2023/01/24 02:07:51;;;;;;;29.30;14.57;;;1.40;99.90;;;;;;15202150;23;20049;-36
2023/01/24 02:16:02;;;;;;;18.73;11.27;;;1.50;99.90;;;;;;15196915;23;20096;-37
2023/01/24 02:20:21;;;;;;;14.52;8.40;;;1.40;99.90;;;;;;15205619;23;20037;-37
2023/01/24 02:26:25;;;;;;;13.23;7.40;;;1.40;99.90;;;;;;15201227;23;20022;-37
2023/01/24 02:32:27;;;;;;;16.42;9.27;;;1.50;99.90;;;;;;15202903;23;20025;-37
2023/01/24 02:38:30;;;;;;;16.50;9.15;;;1.60;99.90;;;;;;15173919;23;20026;-37
2023/01/24 02:44:42;;;;;;;15.77;8.73;;;1.60;99.90;;;;;;15198096;23;20125;-38
2023/01/24 03:03:25;;;;;;;9.88;5.63;;;1.60;99.90;;;;;;15197995;23;20137;-37
2023/01/24 03:09:38;;;;;;;10.68;5.90;;;1.60;99.90;;;;;;15174258;23;20403;-37
2023/01/24 03:34:50;;;;;;;7.43;4.57;;;1.60;99.90;;;;;;15201282;23;20030;-37
2023/01/24 03:40:52;;;;;;;10.15;5.10;;;1.60;99.90;;;;;;15203908;23;20066;-37
2023/01/24 03:46:54;;;;;;;8.43;5.32;;;1.60;99.90;;;;;;15199223;23;20018;-37
2023/01/24 03:52:56;;;;;;;9.13;5.18;;;1.60;99.90;;;;;;15172657;23;20530;-37
2023/01/24 03:58:58;;;;;;;7.43;4.70;;;1.60;99.90;;;;;;15200596;23;20057;-37
2023/01/24 04:05:15;;;;;;;9.57;5.30;;;1.70;99.90;;;;;;15173367;23;20112;-37
2023/01/24 04:11:17;;;;;;;9.70;5.35;;;1.60;99.90;;;;;;15197825;23;20037;-37
2023/01/24 04:17:19;;;;;;;8.15;5.13;;;1.60;99.90;;;;;;15196780;23;20022;-37
2023/01/24 04:23:21;;;;;;;9.85;5.47;;;1.60;99.90;;;;;;15176342;23;20022;-38
2023/01/24 04:29:23;;;;;;;9.73;5.82;;;1.60;99.90;;;;;;15174258;23;20025;-37
2023/01/24 04:35:28;;;;;;;11.63;6.55;;;1.60;99.90;;;;;;15195478;23;20329;-37
2023/01/24 04:41:29;;;;;;;11.18;6.13;;;1.50;99.90;;;;;;15201622;23;20097;-37
2023/01/24 04:47:31;;;;;;;9.38;5.47;;;1.50;99.90;;;;;;15199189;23;20065;-36
2023/01/24 04:53:35;;;;;;;9.63;5.40;;;1.50;99.90;;;;;;15200134;23;20025;-36
2023/01/24 04:59:37;;;;;;;9.25;5.47;;;1.50;99.90;;;;;;15174106;23;20029;-37
2023/01/24 05:05:39;;;;;;;9.90;6.00;;;1.60;99.90;;;;;;15192590;23;20109;-37
2023/01/24 05:11:41;;;;;;;9.77;6.10;;;1.50;99.90;;;;;;15163885;23;20022;-37
2023/01/24 05:17:43;;;;;;;10.65;5.85;;;1.50;99.90;;;;;;15172488;23;20026;-37
2023/01/24 05:23:51;;;;;;;9.05;5.00;;;1.50;99.90;;;;;;15199283;23;20062;-37
2023/01/24 05:29:53;;;;;;;9.88;5.10;;;1.50;99.90;;;;;;15193755;23;20058;-37
2023/01/24 05:36:00;;;;;;;9.90;5.13;;;1.50;99.90;;;;;;15195976;23;20026;-36
2023/01/24 05:42:02;;;;;;;7.88;4.68;;;1.50;99.90;;;;;;15200473;23;20030;-37
2023/01/24 05:48:04;;;;;;;7.95;4.22;;;1.50;99.90;;;;;;15196774;23;20612;-37
2023/01/24 05:54:06;;;;;;;8.70;4.40;;;1.50;99.90;;;;;;15202367;23;20026;-37
2023/01/24 06:00:09;;;;;;;7.25;4.13;;;1.50;99.90;;;;;;15195247;23;20590;-37
2023/01/24 06:06:13;;;;;;;7.55;4.35;;;1.50;99.90;;;;;;15138084;23;20034;-37
2023/01/24 06:12:15;;;;;;;9.18;4.40;;;1.50;99.90;;;;;;15199886;23;20529;-37
2023/01/24 06:18:18;;;;;;;9.75;4.30;;;1.50;99.90;;;;;;15173891;23;20069;-36
2023/01/24 06:24:26;;;;;;;9.38;4.55;;;1.50;99.90;;;;;;15202036;23;20514;-36
2023/01/24 06:30:28;;;;;;;8.18;4.57;;;1.50;99.90;;;;;;15172237;23;20147;-36
2023/01/24 06:36:45;;;;;;;7.25;3.85;;;1.50;99.90;;;;;;15203511;23;20032;-36
2023/01/24 06:42:48;;;;;;;7.70;3.28;;;1.50;99.90;;;;;;15179166;23;20057;-36
2023/01/24 06:48:50;;;;;;;6.70;3.75;;;1.40;99.90;;;;;;15195288;23;20069;-35
2023/01/24 06:54:52;;;;;;;7.90;4.35;;;1.40;99.90;;;;;;15199630;23;20048;-37
2023/01/24 07:00:54;;;;;;;6.85;3.80;;;1.40;99.90;;;;;;15199851;23;20034;-36
2023/01/24 07:06:56;;;;;;;9.25;4.20;;;1.50;99.90;;;;;;15194918;23;20032;-36
2023/01/24 07:12:58;;;;;;;6.63;3.60;;;1.40;99.90;;;;;;15190646;23;20147;-36
2023/01/24 07:19:00;;;;;;;7.43;3.85;;;1.40;99.90;;;;;;15202238;23;20022;-36
2023/01/24 07:25:03;;;;;;;5.90;3.58;;;1.40;99.90;;;;;;15197432;23;20585;-36
2023/01/24 07:31:05;;;;;;;6.88;3.80;;;1.40;99.90;;;;;;15199385;23;20026;-36
2023/01/24 07:37:07;;;;;;;9.40;3.47;;;1.40;99.90;;;;;;15197979;23;20022;-36
2023/01/24 07:43:09;;;;;;;5.22;3.35;;;1.40;99.90;;;;;;15202487;23;20350;-36
2023/01/24 07:49:11;;;;;;;6.57;3.80;;;1.40;99.90;;;;;;15197682;23;20018;-36
2023/01/24 07:55:13;;;;;;;7.22;3.88;;;1.40;99.90;;;;;;15195676;23;20053;-36
2023/01/24 08:01:20;;;;;;;5.07;2.92;;;1.40;99.90;;;;;;15198586;23;20049;-36
2023/01/24 08:07:22;;;;;;;5.53;3.30;;;1.40;99.90;;;;;;15196429;23;20125;-36
2023/01/24 08:13:24;;;;;;;6.03;3.20;;;1.40;99.90;;;;;;15197641;23;20022;-37
2023/01/24 08:19:26;;;;;;;5.00;3.05;;;1.40;99.90;;;;;;15197554;23;20034;-36
2023/01/24 08:25:48;;;;;;;5.80;3.10;;;1.40;99.90;;;;;;15200743;23;20132;-37
2023/01/24 08:31:50;;;;;;;7.20;3.58;;;1.50;99.90;;;;;;15171822;23;20054;-36
2023/01/24 08:37:52;;;;;;;4.60;2.80;;;1.50;99.90;;;;;;15194786;23;20022;-36
2023/01/24 08:43:54;;;;;;;6.18;3.00;;;1.50;99.90;;;;;;15196660;23;20359;-37
2023/01/24 08:49:56;;;;;;;5.63;2.92;;;1.50;99.90;;;;;;15195742;23;20066;-35
2023/01/24 08:55:58;;;;;;;5.47;2.47;;;1.50;99.90;;;;;;15195648;23;20026;-36
2023/01/24 09:02:00;;;;;;;5.57;3.05;;;1.50;99.90;;;;;;15198440;23;20026;-37
2023/01/24 09:08:05;;;;;;;3.80;2.47;;;1.50;99.90;;;;;;15196092;23;20072;-36
2023/01/24 09:14:07;;;;;;;5.07;2.40;;;1.60;99.90;;;;;;15196355;23;20456;-35
2023/01/24 09:20:10;;;;;;;4.13;2.53;;;1.50;99.90;;;;;;15198723;23;20347;-36
2023/01/24 09:26:12;;;;;;;4.38;2.70;;;1.60;99.90;;;;;;15202103;23;20085;-36
2023/01/24 09:32:16;;;;;;;5.00;2.90;;;1.60;99.90;;;;;;15200187;23;20100;-36
2023/01/24 09:38:19;;;;;;;6.00;2.47;;;1.60;99.90;;;;;;15203689;23;20451;-36
2023/01/24 09:44:34;;;;;;;4.63;2.53;;;1.60;99.90;;;;;;15202633;23;20058;-36
2023/01/24 09:50:57;;;;;;;4.22;2.35;;;1.60;99.90;;;;;;15205725;23;20030;-36
2023/01/24 09:57:16;;;;;;;3.53;2.03;;;1.70;99.90;;;;;;15203731;23;20030;-36
2023/01/24 10:03:23;;;;;;;3.88;2.25;;;1.60;99.90;;;;;;15201203;23;20057;-36
2023/01/24 10:09:37;;;;;;;4.00;2.40;;;1.70;99.90;;;;;;15197343;23;20033;-35
2023/01/24 10:15:56;;;;;;;4.60;2.63;;;1.60;99.90;;;;;;15194679;23;20022;-37
2023/01/24 10:22:24;;;;;;;4.63;3.05;;;1.70;99.90;;;;;;15201121;23;20352;-35
2023/01/24 10:28:32;;;;;;;4.00;2.50;;;1.80;99.90;;;;;;15170362;23;20033;-36
2023/01/24 10:34:47;;;;;;;4.18;2.47;;;1.80;99.90;;;;;;15177396;23;20438;-36
2023/01/24 10:40:51;;;;;;;4.32;2.63;;;1.80;99.90;;;;;;15201986;23;20123;-35
2023/01/24 10:47:21;;;;;;;4.35;2.60;;;1.80;99.90;;;;;;15201872;23;20053;-41
2023/01/24 10:53:27;;;;;;;6.35;2.50;;;1.90;99.90;;;;;;15199290;23;20034;-36
2023/01/24 10:59:32;;;;;;;7.30;2.53;;;1.90;99.90;;;;;;15201136;23;20057;-35
2023/01/24 11:05:52;;;;;;;3.72;2.33;;;1.90;99.90;;;;;;15199462;23;20713;-36
2023/01/24 11:11:56;;;;;;;3.67;2.25;;;1.90;99.90;;;;;;15197032;23;20104;-36
2023/01/24 11:18:11;;;;;;;4.95;2.70;;;1.90;99.90;;;;;;15196637;23;20018;-36
2023/01/24 11:24:19;;;;;;;4.88;2.63;;;1.90;99.90;;;;;;15198932;23;20579;-37
2023/01/24 11:30:22;;;;;;;5.50;2.90;;;1.90;99.90;;;;;;15197918;23;20025;-37
2023/01/24 11:36:40;;;;;;;4.75;2.78;;;1.90;99.90;;;;;;15199575;23;20017;-37
2023/01/24 11:43:02;;;;;;;5.03;2.60;;;1.90;99.90;;;;;;15201254;23;20025;-37
2023/01/24 11:49:17;;;;;;;5.40;2.83;;;2.00;99.90;;;;;;15176265;23;20028;-36
2023/01/24 11:55:48;;;;;;;5.43;2.75;;;1.90;99.90;;;;;;15201972;23;20470;-37
2023/01/24 12:02:09;;;;;;;5.22;3.00;;;1.90;99.90;;;;;;15200492;23;20029;-36
2023/01/24 12:08:26;;;;;;;4.22;2.58;;;2.00;99.90;;;;;;15197172;23;20026;-37
2023/01/24 12:14:56;;;;;;;4.80;3.00;;;2.10;99.90;;;;;;15194706;23;20026;-36
2023/01/24 12:21:08;;;;;;;4.65;3.13;;;2.10;99.90;;;;;;15196599;23;20444;-37
2023/01/24 12:27:21;;;;;;;4.78;3.20;;;2.00;99.90;;;;;;15197174;23;20022;-36
2023/01/24 12:33:28;;;;;;;4.68;2.83;;;2.10;99.90;;;;;;15201205;23;20379;-37
2023/01/24 12:39:46;;;;;;;5.00;3.15;;;2.00;99.90;;;;;;15199795;23;20026;-36
2023/01/24 12:45:57;;;;;;;4.32;2.80;;;2.00;99.90;;;;;;15197823;23;20470;-37
2023/01/24 12:52:08;;;;;;;4.47;3.03;;;2.10;99.90;;;;;;15196471;23;20070;-36
2023/01/24 12:58:48;;;;;;;5.05;3.58;;;2.00;99.90;;;;;;15195261;23;20025;-36
2023/01/24 13:05:22;;;;;;;6.97;3.35;;;1.90;99.90;;;;;;15151131;23;20029;-36
2023/01/24 13:11:29;;;;;;;6.57;3.58;;;2.00;99.90;;;;;;15198107;23;20026;-37
2023/01/24 13:18:02;;;;;;;6.15;3.35;;;2.00;99.90;;;;;;15200599;23;20018;-37
2023/01/24 13:24:16;;;;;;;4.93;3.35;;;1.90;99.90;;;;;;15201513;23;20061;-37
2023/01/24 13:30:26;;;;;;;5.85;3.85;;;1.90;99.90;;;;;;15175321;23;20340;-36
2023/01/24 13:36:34;;;;;;;5.35;3.60;;;1.90;99.90;;;;;;15206024;23;20085;-36
2023/01/24 13:42:38;;;;;;;6.05;4.32;;;1.90;99.90;;;;;;15204656;23;20026;-37
2023/01/24 13:48:40;;;;;;;8.32;4.90;;;1.90;99.90;;;;;;15203329;23;20032;-36
2023/01/24 13:54:43;;;;;;;8.70;4.82;;;1.90;99.90;;;;;;15201500;23;20104;-36
2023/01/24 14:00:51;;;;;;;7.07;4.43;;;1.80;99.90;;;;;;15199169;23;20355;-36
2023/01/24 14:06:54;;;;;;;7.13;4.10;;;1.80;99.90;;;;;;15197809;23;20471;-36
2023/01/24 14:12:56;;;;;;;9.23;5.18;;;1.70;99.90;;;;;;15194787;23;20108;-37
2023/01/24 14:19:22;;;;;;;10.40;5.40;;;1.60;99.90;;;;;;15174911;23;20398;-36
2023/01/24 14:25:55;;;;;;;7.22;4.72;;;1.60;99.90;;;;;;15201013;23;20033;-36
2023/01/24 14:32:00;;;;;;;7.88;5.15;;;1.50;99.90;;;;;;15196529;23;20468;-36
2023/01/24 14:38:16;;;;;;;7.80;4.65;;;1.50;99.90;;;;;;15201892;23;20033;-36
2023/01/24 14:44:30;;;;;;;10.25;5.68;;;1.50;99.90;;;;;;15201147;23;20352;-36
2023/01/24 14:50:35;;;;;;;8.95;5.47;;;1.40;99.90;;;;;;15197018;23;20025;-36
2023/01/24 14:56:40;;;;;;;8.52;5.93;;;1.40;99.90;;;;;;15200925;23;20080;-37
2023/01/24 15:02:42;;;;;;;;;;;1.40;99.90;;;;;;15171676;23;20026;-36
2023/01/24 15:08:44;;;;;;;10.90;6.68;;;1.30;99.90;;;;;;15198900;23;19921;-36
2023/01/24 15:14:51;;;;;;;11.15;6.22;;;1.30;99.90;;;;;;15199388;23;20026;-37
2023/01/24 15:20:53;;;;;;;10.98;7.22;;;1.10;99.90;;;;;;15200793;23;20017;-37
2023/01/24 15:26:57;;;;;;;13.25;7.75;;;1.20;99.90;;;;;;15203816;23;20033;-36
2023/01/24 15:33:01;;;;;;;12.83;7.67;;;1.10;99.90;;;;;;15199073;23;20022;-37
2023/01/24 15:39:11;;;;;;;14.00;7.93;;;1.10;99.90;;;;;;15201334;23;20120;-37
2023/01/24 15:45:18;;;;;;;11.68;7.07;;;1.10;99.90;;;;;;15195778;23;20029;-36
2023/01/24 15:51:32;;;;;;;15.15;8.30;;;1.10;99.90;;;;;;15201434;23;20069;-37
2023/01/24 15:57:38;;;;;;;13.15;8.32;;;1.00;99.90;;;;;;15197349;23;20033;-36
2023/01/24 16:03:40;;;;;;;14.80;8.20;;;1.00;99.90;;;;;;15199533;23;20026;-36
2023/01/24 16:09:42;;;;;;;12.05;8.10;;;1.10;99.90;;;;;;15194069;23;20029;-36
2023/01/24 16:15:43;;;;;;;15.70;8.90;;;1.10;99.90;;;;;;15175155;23;20030;-36
2023/01/24 16:21:45;;;;;;;16.95;9.75;;;1.10;99.90;;;;;;15174153;23;20080;-36
2023/01/24 16:27:48;;;;;;;27.90;15.38;;;1.10;99.90;;;;;;15196048;23;20022;-36
2023/01/24 16:33:50;;;;;;;16.23;9.60;;;1.00;99.90;;;;;;15196216;23;20033;-36
2023/01/24 16:39:52;;;;;;;15.05;9.57;;;1.00;99.90;;;;;;15193524;23;20029;-36
2023/01/24 16:45:54;;;;;;;16.35;10.13;;;0.90;99.90;;;;;;15199870;23;20121;-35
2023/01/24 16:51:56;;;;;;;13.95;9.02;;;0.80;99.90;;;;;;15198614;23;20097;-36
2023/01/24 16:57:58;;;;;;;16.08;9.68;;;0.70;99.90;;;;;;15197324;23;20029;-36
2023/01/24 17:04:02;;;;;;;16.17;10.02;;;0.70;99.90;;;;;;15201400;23;20083;-36
2023/01/24 17:10:04;;;;;;;17.80;10.80;;;0.70;99.90;;;;;;15170357;23;20338;-36
2023/01/24 17:16:08;;;;;;;17.13;10.48;;;0.70;99.90;;;;;;15195499;23;20339;-36
2023/01/24 17:22:11;;;;;;;;;;;0.60;99.90;;;;;;15199885;23;20030;-36
2023/01/24 17:28:13;;;;;;;17.48;10.60;;;0.50;99.90;;;;;;15197821;23;19927;-36
2023/01/24 17:34:15;;;;;;;18.33;10.20;;;0.60;99.90;;;;;;15196606;23;20022;-36
2023/01/24 17:40:17;;;;;;;17.90;9.82;;;0.60;99.90;;;;;;15196676;23;20034;-37
2023/01/24 17:46:20;;;;;;;20.45;11.95;;;0.60;99.90;;;;;;15205097;23;20025;-36
2023/01/24 17:52:22;;;;;;;20.73;10.93;;;0.50;99.90;;;;;;15206167;23;20775;-37
2023/01/24 17:58:25;;;;;;;21.08;11.23;;;0.50;99.90;;;;;;15198287;23;20042;-36
2023/01/24 18:04:27;;;;;;;19.77;11.63;;;0.50;99.90;;;;;;15202787;23;20451;-36
2023/01/24 18:10:29;;;;;;;19.55;12.35;;;0.50;99.90;;;;;;15202964;23;20338;-36
2023/01/24 18:16:31;;;;;;;21.63;12.70;;;0.40;99.90;;;;;;15200510;23;20026;-37
2023/01/24 18:22:33;;;;;;;22.25;12.20;;;0.40;99.90;;;;;;15204890;23;20018;-37
2023/01/24 18:28:36;;;;;;;21.50;11.82;;;0.40;99.90;;;;;;15203455;23;20022;-38
2023/01/24 18:34:38;;;;;;;17.67;10.82;;;0.40;99.90;;;;;;15202215;23;20481;-37
2023/01/24 18:40:40;;;;;;;21.05;11.38;;;0.30;99.90;;;;;;15205384;23;20021;-36
2023/01/24 18:46:42;;;;;;;18.73;11.65;;;0.30;99.90;;;;;;15180514;23;20029;-37
2023/01/24 18:52:43;;;;;;;19.70;10.95;;;0.30;99.90;;;;;;15203333;23;20030;-37
2023/01/24 18:58:46;;;;;;;17.88;10.23;;;0.40;99.90;;;;;;15203840;23;20046;-36
2023/01/24 19:04:48;;;;;;;18.05;11.65;;;0.50;99.90;;;;;;15198696;23;20045;-36
2023/01/24 19:10:50;;;;;;;17.33;10.30;;;0.50;99.90;;;;;;15168762;23;20093;-36
2023/01/24 19:16:52;;;;;;;17.45;10.55;;;0.40;99.90;;;;;;15195742;23;20036;-36
2023/01/24 19:22:54;;;;;;;17.30;10.20;;;0.50;99.90;;;;;;15204421;23;20049;-37
2023/01/24 19:28:57;;;;;;;13.50;8.50;;;0.40;99.90;;;;;;15197246;23;20057;-37
2023/01/24 19:34:59;;;;;;;11.00;8.18;;;0.40;99.90;;;;;;15170656;23;20077;-37
2023/01/24 19:41:06;;;;;;;12.52;7.75;;;0.30;99.90;;;;;;15202006;23;20510;-36
2023/01/24 19:47:08;;;;;;;10.65;7.68;;;0.30;99.90;;;;;;15171463;23;20026;-37
2023/01/24 19:53:10;;;;;;;13.23;8.77;;;0.30;99.90;;;;;;15199755;23;20032;-36
2023/01/24 19:59:12;;;;;;;12.50;8.88;;;0.30;99.90;;;;;;15202251;23;20026;-37
2023/01/24 20:05:14;;;;;;;11.77;7.97;;;0.30;99.90;;;;;;15172013;23;20360;-37
2023/01/24 20:11:17;;;;;;;12.43;8.23;;;0.30;99.90;;;;;;15193962;23;20429;-36
2023/01/24 20:17:18;;;;;;;11.82;8.43;;;0.40;99.90;;;;;;15199719;23;20033;-36
2023/01/24 20:23:20;;;;;;;14.35;8.75;;;0.30;99.90;;;;;;15202914;23;20061;-36
2023/01/24 20:29:22;;;;;;;13.65;8.63;;;0.30;99.90;;;;;;15195545;23;20025;-36
2023/01/24 20:35:24;;;;;;;11.82;8.15;;;0.20;99.90;;;;;;15197806;23;20081;-37
2023/01/24 20:41:30;;;;;;;16.25;10.80;;;0.20;99.90;;;;;;15196138;23;20029;-37
2023/01/24 20:47:35;;;;;;;13.13;8.20;;;0.20;99.90;;;;;;15202009;23;20387;-37
2023/01/24 20:53:37;;;;;;;10.32;7.35;;;0.20;99.90;;;;;;15199888;23;20021;-37
2023/01/24 20:59:39;;;;;;;12.32;8.25;;;0.20;99.90;;;;;;15198358;23;20078;-37
2023/01/24 21:05:40;;;;;;;11.65;8.07;;;0.20;99.90;;;;;;15195352;23;20028;-37
2023/01/24 21:11:42;;;;;;;14.25;8.27;;;0.20;99.90;;;;;;15192811;23;20029;-36
2023/01/24 21:17:44;;;;;;;11.82;8.65;;;0.20;99.90;;;;;;15197974;23;20025;-37
2023/01/24 21:23:46;;;;;;;11.25;8.15;;;0.20;99.90;;;;;;15204857;23;20500;-37
2023/01/24 21:29:48;;;;;;;13.35;8.90;;;0.30;99.90;;;;;;15198866;23;20025;-37
2023/01/24 21:36:02;;;;;;;14.75;8.68;;;0.20;99.90;;;;;;15202375;23;20025;-37
2023/01/24 21:42:04;;;;;;;12.10;8.90;;;0.10;99.90;;;;;;15202566;23;20054;-37
2023/01/24 21:48:06;;;;;;;12.75;8.68;;;0.10;99.90;;;;;;15203630;23;20109;-37
2023/01/24 21:54:14;;;;;;;12.90;8.90;;;0.10;99.90;;;;;;15202423;23;20195;-37
2023/01/24 22:00:16;;;;;;;15.50;9.80;;;0.10;99.90;;;;;;15202040;23;20018;-37
2023/01/24 22:06:18;;;;;;;13.18;8.98;;;0.10;99.90;;;;;;15201557;23;20112;-36
2023/01/24 22:12:20;;;;;;;13.32;9.57;;;0.20;99.90;;;;;;15194307;23;20033;-37
2023/01/24 22:18:22;;;;;;;13.32;8.70;;;0.10;99.90;;;;;;15196585;23;20085;-37
2023/01/24 22:24:59;;;;;;;12.48;8.27;;;0.10;99.90;;;;;;15203183;23;20034;-37
2023/01/24 22:31:02;;;;;;;12.88;8.35;;;0.30;99.90;;;;;;15113037;23;20104;-37
2023/01/24 22:37:27;;;;;;;10.93;8.10;;;0.10;99.90;;;;;;15201654;23;20022;-37
2023/01/24 22:43:29;;;;;;;11.43;8.15;;;0.00;99.90;;;;;;15199740;23;20030;-36
2023/01/24 22:49:32;;;;;;;11.70;7.95;;;0.00;99.90;;;;;;15199610;23;20021;-37
2023/01/24 22:55:39;;;;;;;11.10;7.72;;;0.10;99.90;;;;;;15201883;23;20028;-37
2023/01/24 23:01:41;;;;;;;10.75;8.15;;;0.10;99.90;;;;;;15197601;23;20061;-37
2023/01/24 23:07:43;;;;;;;10.90;7.50;;;0.10;99.90;;;;;;15199095;23;20049;-37
2023/01/24 23:26:30;;;;;;;11.27;7.45;;;-0.10;99.90;;;;;;15144028;23;20026;-37
2023/01/24 23:32:40;;;;;;;13.13;8.60;;;-0.10;99.90;;;;;;15200929;23;20030;-37
2023/01/24 23:38:41;;;;;;;12.05;7.90;;;-0.10;99.90;;;;;;15199351;23;20025;-37
2023/01/24 23:44:44;;;;;;;13.07;7.80;;;-0.10;99.90;;;;;;15201839;23;20033;-36
2023/01/24 23:50:54;;;;;;;12.05;8.18;;;-0.10;99.90;;;;;;15200226;23;20030;-37
2023/01/24 23:56:55;;;;;;;13.43;8.27;;;-0.20;99.90;;;;;;15200959;23;20329;-36
